Time;durP1;ratioP1;P1;durP2;ratioP2;P2;SDS_P1;SDS_P2;PMS_P1;PMS_P2;Temp;Humidity;BMP_temperature;BMP_pressure;BME280_temperature;BME280_humidity;BME280_pressure;Samples;Min_cycle;Max_cycle;Signal;HPM_P1;HPM_P2
2021/06/14 00:01:01;;;;;;;5.85;2.40;;;;;;;11.80;65.71;98902.59;1700415;82;28066;-85
2021/06/14 00:03:27;;;;;;;5.05;2.25;;;;;;;11.80;65.79;98902.59;1707431;82;28163;-85
2021/06/14 00:05:53;;;;;;;4.35;2.05;;;;;;;11.80;65.87;98898.66;1711375;82;43019;-85
2021/06/14 00:08:21;;;;;;;4.97;1.95;;;;;;;11.82;65.94;98898.95;1710792;82;28120;-85
2021/06/14 00:10:51;;;;;;;7.33;2.40;;;;;;;11.83;66.00;98899.32;1713307;82;43026;-85
2021/06/14 00:13:18;;;;;;;4.37;1.82;;;;;;;11.85;66.08;98898.72;1720406;82;28143;-85
2021/06/14 00:15:49;;;;;;;3.47;2.02;;;;;;;11.89;66.14;98898.88;1713600;81;28123;-85
2021/06/14 00:18:15;;;;;;;4.30;2.20;;;;;;;11.90;66.20;98897.09;1715711;81;28052;-86
2021/06/14 00:20:45;;;;;;;4.47;2.33;;;;;;;11.91;66.29;98893.53;1712467;82;28099;-85
2021/06/14 00:23:13;;;;;;;4.08;1.95;;;;;;;11.92;66.35;98892.12;1714093;82;28068;-86
2021/06/14 00:25:39;;;;;;;4.65;1.95;;;;;;;11.91;66.39;98885.67;1720046;82;28072;-86
2021/06/14 00:28:06;;;;;;;10.75;2.83;;;;;;;11.89;66.45;98881.83;1714793;81;43557;-86
2021/06/14 00:30:37;;;;;;;3.65;1.82;;;;;;;11.88;66.51;98891.14;1721597;82;28073;-86
2021/06/14 00:33:04;;;;;;;3.83;1.93;;;;;;;11.88;66.56;98891.98;1715271;80;28128;-86
2021/06/14 00:35:34;;;;;;;3.92;2.42;;;;;;;11.88;66.62;98895.91;1718394;82;28080;-86
2021/06/14 00:38:01;;;;;;;6.15;2.35;;;;;;;11.87;66.67;98892.91;1713911;82;28115;-86
2021/06/14 00:40:27;;;;;;;5.65;2.27;;;;;;;11.89;66.74;98895.44;1730179;81;28125;-85
2021/06/14 00:42:54;;;;;;;6.72;2.50;;;;;;;11.89;66.81;98893.63;1717826;82;43043;-85
2021/06/14 00:45:23;;;;;;;6.70;2.20;;;;;;;11.90;66.86;98891.38;1713357;82;28104;-85
2021/06/14 00:47:55;;;;;;;3.58;2.20;;;;;;;11.94;66.91;98894.19;1709553;82;28095;-85
2021/06/14 00:50:33;;;;;;;3.75;2.47;;;;;;;11.95;66.98;98893.69;1680149;82;28072;-85
2021/06/14 00:53:00;;;;;;;7.00;2.27;;;;;;;11.98;67.03;98895.66;1709606;82;43046;-85
2021/06/14 00:55:26;;;;;;;6.20;2.45;;;;;;;12.01;67.09;98891.96;1717388;82;28163;-85
2021/06/14 00:57:53;;;;;;;7.75;2.10;;;;;;;12.05;67.14;98893.45;1716812;82;43052;-85
2021/06/14 01:00:21;;;;;;;4.78;1.82;;;;;;;12.05;67.18;98886.42;1711568;82;28107;-85
2021/06/14 01:02:51;;;;;;;6.05;2.60;;;;;;;12.07;67.23;98882.36;1714634;82;28135;-85
2021/06/14 01:05:19;;;;;;;6.45;2.33;;;;;;;12.07;67.27;98881.89;1715078;82;28008;-86
2021/06/14 01:07:45;;;;;;;4.33;2.10;;;;;;;12.08;67.32;98875.70;1720392;82;28093;-85
2021/06/14 01:10:13;;;;;;;4.95;1.80;;;;;;;12.09;67.36;98876.55;1712976;82;28097;-85
2021/06/14 01:12:49;;;;;;;6.05;1.98;;;;;;;12.11;67.41;98884.66;1688892;83;28076;-85
2021/06/14 01:15:18;;;;;;;5.08;1.85;;;;;;;12.14;67.45;98884.47;1681073;84;28142;-85
2021/06/14 01:17:57;;;;;;;6.28;2.62;;;;;;;12.15;67.51;98882.22;1684676;84;28057;-85
2021/06/14 01:20:36;;;;;;;5.78;2.15;;;;;;;12.14;67.51;98884.47;1688070;83;28091;-85
2021/06/14 01:23:38;;;;;;;4.75;2.20;;;;;;;12.14;67.54;98884.47;1682394;84;28083;-85
2021/06/14 01:26:11;;;;;;;5.80;2.22;;;;;;;12.13;67.56;98885.88;1682431;84;28111;-85
2021/06/14 01:28:39;;;;;;;7.00;1.82;;;;;;;12.14;67.60;98885.78;1682514;84;28090;-85
2021/06/14 01:31:06;;;;;;;5.33;2.12;;;;;;;12.15;67.66;98879.59;1662176;84;28146;-85
2021/06/14 01:33:35;;;;;;;4.00;2.37;;;;;;;12.18;67.70;98878.53;1684566;84;28123;-85
2021/06/14 01:36:08;;;;;;;6.45;2.47;;;;;;;12.19;67.72;98874.97;1684322;83;43047;-85
2021/06/14 01:38:37;;;;;;;3.70;2.08;;;;;;;12.20;67.74;98873.19;1683716;84;27998;-85
2021/06/14 01:41:07;;;;;;;5.97;2.30;;;;;;;12.21;67.80;98877.49;1682909;83;28102;-85
2021/06/14 01:43:37;;;;;;;4.15;1.72;;;;;;;12.23;67.83;98874.27;1684517;83;28177;-85
2021/06/14 01:46:10;;;;;;;6.40;1.95;;;;;;;12.25;67.86;98864.05;1683995;83;28076;-85
2021/06/14 01:48:38;;;;;;;4.60;2.40;;;;;;;12.27;67.90;98867.89;1682210;84;28067;-86
2021/06/14 01:51:07;;;;;;;5.65;2.02;;;;;;;12.28;67.93;98866.91;1685025;84;28042;-86
2021/06/14 01:53:35;;;;;;;4.50;2.75;;;;;;;12.28;67.99;98874.31;1688133;83;28081;-86
2021/06/14 01:56:02;;;;;;;4.95;2.45;;;;;;;12.29;68.00;98865.97;1684844;84;28137;-86
2021/06/14 01:58:30;;;;;;;8.35;2.58;;;;;;;12.30;68.02;98867.19;1683829;84;28129;-85
2021/06/14 02:00:59;;;;;;;4.97;2.17;;;;;;;12.34;68.07;98874.36;1684367;84;25661;-85
2021/06/14 02:03:35;;;;;;;6.40;2.20;;;;;;;12.34;68.08;98867.80;1683373;84;28159;-85
2021/06/14 02:06:12;;;;;;;6.28;2.37;;;;;;;12.37;68.13;98875.00;1682940;84;28083;-85
2021/06/14 02:08:36;;;;;;;7.40;2.17;;;;;;;12.32;68.18;98872.34;1683289;84;28032;-85
2021/06/14 02:11:02;;;;;;;6.15;2.27;;;;;;;12.36;68.23;98877.73;1684747;84;28181;-85
2021/06/14 02:13:30;;;;;;;5.30;2.12;;;;;;;12.39;68.27;98881.44;1662492;85;28092;-85
2021/06/14 02:15:56;;;;;;;6.00;2.65;;;;;;;12.37;68.30;98875.48;1669041;85;28020;-85
2021/06/14 02:18:24;;;;;;;4.33;1.80;;;;;;;12.36;68.35;98872.48;1663099;85;28162;-86
2021/06/14 02:20:51;;;;;;;3.70;1.92;;;;;;;12.41;68.39;98866.43;1666761;84;28078;-85
2021/06/14 02:23:17;;;;;;;4.72;1.80;;;;;;;12.47;68.42;98864.22;1665858;85;28227;-85
2021/06/14 02:25:43;;;;;;;5.75;2.30;;;;;;;12.53;68.47;98865.57;1664900;85;28080;-85
2021/06/14 02:28:10;;;;;;;6.35;2.10;;;;;;;12.53;68.50;98867.73;1660828;85;28079;-85
2021/06/14 02:30:37;;;;;;;5.35;2.08;;;;;;;12.51;68.49;98870.08;1666125;84;28068;-85
2021/06/14 02:33:04;;;;;;;4.90;2.40;;;;;;;12.52;68.51;98869.98;1664439;84;28468;-86
2021/06/14 02:35:30;;;;;;;4.33;2.12;;;;;;;12.51;68.54;98871.39;1665208;85;28139;-85
2021/06/14 02:38:00;;;;;;;4.50;2.08;;;;;;;12.54;68.58;98880.38;1667323;84;28036;-86
2021/06/14 02:40:30;;;;;;;5.35;1.92;;;;;;;12.63;68.60;98874.47;1657523;84;28114;-85
2021/06/14 02:43:00;;;;;;;4.97;2.37;;;;;;;12.71;68.62;98875.25;1647366;85;28113;-85
2021/06/14 02:45:31;;;;;;;4.28;2.20;;;;;;;12.76;68.63;98875.28;1659197;84;28011;-84
2021/06/14 02:47:58;;;;;;;4.53;2.35;;;;;;;12.79;68.66;98879.46;1670447;84;28161;-85
2021/06/14 02:50:28;;;;;;;3.50;2.08;;;;;;;12.78;68.66;98877.31;1665501;85;28032;-85
2021/06/14 02:52:56;;;;;;;7.30;2.37;;;;;;;12.78;68.65;98881.25;1665675;84;28131;-85
2021/06/14 02:55:29;;;;;;;4.83;2.45;;;;;;;12.77;68.61;98877.41;1666988;85;28174;-85
2021/06/14 02:57:59;;;;;;;6.60;2.00;;;;;;;12.73;68.62;98879.42;1645955;85;28004;-85
2021/06/14 03:00:29;;;;;;;4.80;1.95;;;;;;;12.76;68.62;98880.53;1663310;85;28092;-85
2021/06/14 03:03:01;;;;;;;4.10;2.02;;;;;;;12.76;68.62;98883.64;1665943;85;28110;-85
2021/06/14 03:05:29;;;;;;;6.20;2.50;;;;;;;12.76;68.67;98888.42;1662046;84;28098;-86
2021/06/14 03:08:00;;;;;;;3.72;1.90;;;;;;;12.74;68.66;98882.89;1666085;84;28045;-86
2021/06/14 03:10:29;;;;;;;5.30;3.03;;;;;;;12.74;68.65;98881.58;1665362;83;36052;-85
2021/06/14 03:12:57;;;;;;;4.40;2.47;;;;;;;12.74;68.65;98884.20;1668421;84;28048;-85
2021/06/14 03:15:26;;;;;;;5.90;2.52;;;;;;;12.71;68.67;98886.56;1667490;85;28088;-85
2021/06/14 03:17:53;;;;;;;4.80;2.35;;;;;;;12.64;68.68;98890.59;1666679;85;28091;-86
2021/06/14 03:20:21;;;;;;;4.65;2.55;;;;;;;12.64;68.70;98882.72;1666918;85;28147;-85
2021/06/14 03:22:48;;;;;;;4.53;2.25;;;;;;;12.63;68.72;98883.66;1659817;85;28137;-85
2021/06/14 03:25:15;;;;;;;6.78;2.45;;;;;;;12.63;68.75;98886.76;1666666;85;28108;-85
2021/06/14 03:27:44;;;;;;;8.50;2.47;;;;;;;12.72;68.78;98889.56;1663539;85;28071;-85
2021/06/14 03:30:16;;;;;;;8.13;2.60;;;;;;;12.77;68.79;98894.01;1640024;85;28134;-85
2021/06/14 03:32:44;;;;;;;4.60;2.62;;;;;;;12.83;68.82;98896.20;1666431;84;28035;-85
2021/06/14 03:35:17;;;;;;;6.00;2.85;;;;;;;12.89;68.84;98897.55;1667320;85;28108;-85
2021/06/14 03:37:44;;;;;;;6.37;2.92;;;;;;;12.93;68.84;98901.16;1664116;85;28140;-85
2021/06/14 03:40:12;;;;;;;4.97;2.35;;;;;;;12.94;68.85;98898.90;1665776;85;28216;-86
2021/06/14 03:42:38;;;;;;;6.25;2.40;;;;;;;12.95;68.85;98890.07;1666703;85;28131;-86
2021/06/14 03:45:07;;;;;;;5.67;2.80;;;;;;;12.98;68.85;98894.28;1668622;84;27997;-85
2021/06/14 03:47:34;;;;;;;4.15;2.40;;;;;;;13.00;68.86;98891.05;1673018;84;28072;-86
2021/06/14 03:50:00;;;;;;;7.22;2.47;;;;;;;13.02;68.86;98894.41;1679452;84;28174;-86
2021/06/14 03:52:27;;;;;;;6.67;2.60;;;;;;;13.00;68.86;98892.36;1679687;84;28088;-85
2021/06/14 03:54:53;;;;;;;5.10;2.33;;;;;;;13.00;68.86;98895.83;1677987;84;28222;-85
2021/06/14 03:57:19;;;;;;;6.37;2.40;;;;;;;12.95;68.86;98892.70;1669026;84;28103;-86
2021/06/14 03:59:45;;;;;;;6.12;2.83;;;;;;;12.94;68.92;98888.39;1666954;85;28156;-86
2021/06/14 04:02:12;;;;;;;7.15;2.35;;;;;;;12.99;68.92;98891.99;1668682;85;28083;-83
2021/06/14 04:07:06;;;;;;;;;;;;;;;13.17;69.00;98890.70;1674216;84;22134;-83
2021/06/14 04:09:33;;;;;;;6.62;2.90;;;;;;;13.25;69.02;98894.09;1665638;84;26212;-84
2021/06/14 04:12:01;;;;;;;6.75;3.12;;;;;;;13.26;69.02;98891.33;1653171;85;28062;-84
2021/06/14 04:14:27;;;;;;;5.75;2.75;;;;;;;13.27;69.02;98887.75;1687579;84;28096;-84
2021/06/14 04:16:54;;;;;;;4.95;2.70;;;;;;;13.28;69.00;98896.48;1682251;84;28077;-83
2021/06/14 04:19:20;;;;;;;6.62;3.10;;;;;;;13.28;69.01;98899.11;1685056;84;28064;-83
2021/06/14 04:21:47;;;;;;;8.23;2.83;;;;;;;13.29;69.00;98900.80;1682955;84;28208;-83
2021/06/14 04:24:13;;;;;;;6.85;2.80;;;;;;;13.33;69.03;98908.81;1686896;84;28161;-83
2021/06/14 04:26:40;;;;;;;7.58;2.83;;;;;;;13.33;69.04;98909.65;1683932;83;28181;-84
2021/06/14 04:29:06;;;;;;;4.60;2.45;;;;;;;13.44;69.05;98916.75;1682227;84;28108;-84
2021/06/14 04:31:32;;;;;;;7.35;3.00;;;;;;;13.51;69.04;98907.46;1684821;84;28122;-84
2021/06/14 04:33:58;;;;;;;;;;;;;;;13.52;69.06;98903.05;1683665;83;26144;-84
2021/06/14 04:36:24;;;;;;;;;;;;;;;13.67;69.06;98917.20;1694162;84;20272;-84
2021/06/14 04:38:50;;;;;;;;;;;;;;;13.78;69.07;98913.29;1692621;84;20280;-84
2021/06/14 04:41:16;;;;;;;;;;;;;;;13.88;69.10;98903.37;1690592;84;20230;-85
2021/06/14 04:43:43;;;;;;;;;;;;;;;13.98;69.11;98908.30;1696234;83;20758;-85
2021/06/14 04:46:09;;;;;;;;;;;;;;;14.07;69.12;98908.94;1690818;84;26229;-85
2021/06/14 04:48:35;;;;;;;;;;;;;;;14.14;69.10;98908.33;1651430;86;24492;-85
2021/06/14 04:51:01;;;;;;;;;;;;;;;14.16;69.02;98901.64;1690299;84;20231;-85
2021/06/14 04:53:27;;;;;;;;;;;;;;;14.19;68.97;98899.59;1686740;84;20273;-85
2021/06/14 04:55:53;;;;;;;;;;;;;;;14.19;68.87;98910.60;1663769;84;20259;-85
2021/06/14 04:58:19;;;;;;;;;;;;;;;14.23;68.81;98910.75;1637906;86;25962;-85
2021/06/14 05:00:45;;;;;;;;;;;;;;;14.33;68.79;98911.70;1619132;86;24503;-84
2021/06/14 05:03:11;;;;;;;;;;;;;;;14.41;68.77;98915.08;1690958;83;20330;-84
2021/06/14 05:05:38;;;;;;;;;;;;;;;14.50;68.72;98915.70;1686414;84;20326;-84
2021/06/14 05:08:10;;;;;;;;;;;;;;;14.49;68.62;98910.91;1692334;83;23268;-84
2021/06/14 05:10:36;;;;;;;;;;;;;;;14.48;68.53;98907.91;1692420;84;26142;-85
2021/06/14 05:13:02;;;;;;;;;;;;;;;14.44;68.43;98913.06;1689186;83;24482;-85
2021/06/14 05:15:29;;;;;;;;;;;;;;;14.36;68.30;98906.19;1694929;83;20640;-85
2021/06/14 05:17:55;;;;;;;;;;;;;;;14.34;68.23;98902.02;1724280;81;24788;-84
2021/06/14 05:20:21;;;;;;;;;;;;;;;14.39;68.16;98911.27;1728592;82;20291;-85
2021/06/14 05:22:47;;;;;;;;;;;;;;;14.48;68.12;98913.17;1725659;82;26082;-85
2021/06/14 05:25:19;;;;;;;;;;;;;;;14.54;68.07;98906.11;1719268;82;24537;-85
2021/06/14 05:27:45;;;;;;;;;;;;;;;14.58;68.00;98902.27;1722235;82;20307;-85
2021/06/14 05:30:11;;;;;;;;;;;;;;;14.61;67.93;98907.31;1721589;81;24709;-85
2021/06/14 05:32:42;;;;;;;;;;;;;;;14.59;67.86;98905.27;1723803;82;22073;-85
2021/06/14 05:35:15;;;;;;;;;;;;;;;14.57;67.73;98910.28;1721147;82;26700;-85
2021/06/14 05:37:44;;;;;;;;;;;;;;;14.54;67.63;98905.27;1726375;82;24453;-84
2021/06/14 05:40:17;;;;;;;;;;;;;;;14.54;67.51;98907.43;1671267;84;20216;-84
2021/06/14 05:42:44;;;;;;;;;;;;;;;14.59;67.44;98908.38;1696849;84;24174;-84
2021/06/14 05:45:11;;;;;;;;;;;;;;;14.58;67.39;98904.91;1721439;82;21993;-83
2021/06/14 05:47:37;;;;;;;;;;;;;;;14.54;67.32;98903.48;1732522;81;26760;-84
2021/06/14 05:50:07;;;;;;;;;;;;;;;14.53;67.26;98900.48;1722608;82;24512;-84
2021/06/14 05:52:33;;;;;;;;;;;;;;;14.51;67.18;98901.58;1730259;82;20332;-85
2021/06/14 05:54:59;;;;;;;;;;;;;;;14.44;67.08;98910.91;1722549;82;24694;-84
2021/06/14 05:57:25;;;;;;;;;;;;;;;14.32;66.96;98907.87;1726652;82;20232;-84
2021/06/14 05:59:51;;;;;;;;;;;;;;;14.31;66.89;98904.39;1723639;82;25926;-84
2021/06/14 06:02:17;;;;;;;;;;;;;;;14.33;66.87;98905.13;1724508;82;24481;-85
2021/06/14 06:04:43;;;;;;;;;;;;;;;14.41;66.88;98900.12;1724305;82;20256;-84
2021/06/14 06:07:09;;;;;;;;;;;;;;;14.50;66.87;98896.78;1731257;82;20240;-84
2021/06/14 06:09:35;;;;;;;;;;;;;;;14.59;66.90;98896.05;1728489;81;20279;-84
2021/06/14 06:12:02;;;;;;;;;;;;;;;14.66;66.89;98899.05;1727335;81;26059;-85
2021/06/14 06:14:28;;;;;;;;;;;;;;;14.77;66.91;98902.14;1702434;82;186537;-85
2021/06/14 06:16:53;;;;;;;;;;;;;;;14.80;66.87;98897.45;1718928;82;20276;-85
2021/06/14 06:19:20;;;;;;;8.95;3.80;;;;;;;14.93;66.87;98897.33;1711018;82;43080;-85
2021/06/14 06:21:46;;;;;;;7.80;3.45;;;;;;;14.99;66.79;98901.63;1711592;82;28079;-85
2021/06/14 06:24:14;;;;;;;8.25;3.58;;;;;;;15.02;66.73;98901.84;1707382;82;28085;-86
2021/06/14 06:26:41;;;;;;;9.40;3.70;;;;;;;14.98;66.63;98896.00;1727617;82;28140;-85
2021/06/14 06:29:07;;;;;;;5.87;3.62;;;;;;;15.03;66.60;98891.67;1711240;82;28135;-85
2021/06/14 06:31:34;;;;;;;7.42;3.08;;;;;;;15.07;66.52;98886.02;1709989;82;28099;-85
2021/06/14 06:34:00;;;;;;;9.18;3.30;;;;;;;15.15;66.46;98889.36;1709149;82;28199;-85
2021/06/14 06:36:28;;;;;;;10.00;3.30;;;;;;;15.24;66.39;98892.56;1709422;82;28083;-85
2021/06/14 06:38:54;;;;;;;8.88;3.52;;;;;;;15.16;66.23;98887.09;1709857;82;28031;-86
2021/06/14 06:41:21;;;;;;;4.45;3.00;;;;;;;15.21;66.14;98881.44;1712094;82;28141;-86
2021/06/14 06:43:47;;;;;;;6.78;3.50;;;;;;;15.17;66.05;98884.78;1713064;82;28073;-86
2021/06/14 06:46:13;;;;;;;9.73;3.30;;;;;;;15.21;65.97;98883.59;1708422;82;28068;-86
2021/06/14 06:48:44;;;;;;;7.50;3.37;;;;;;;15.26;65.91;98881.41;1699867;82;28081;-87
2021/06/14 06:51:13;;;;;;;7.83;3.45;;;;;;;15.39;65.87;98887.81;1713683;81;28140;-85
2021/06/14 06:53:39;;;;;;;6.72;2.90;;;;;;;15.46;65.82;98887.68;1713786;82;28151;-85
2021/06/14 06:56:05;;;;;;;6.10;2.62;;;;;;;15.53;65.71;98880.13;1708376;82;28187;-86
2021/06/14 06:58:32;;;;;;;7.83;3.02;;;;;;;15.46;65.57;98880.61;1709565;81;28139;-85
2021/06/14 07:00:58;;;;;;;4.37;2.72;;;;;;;15.30;65.34;98879.36;1711115;82;28159;-85
2021/06/14 07:03:25;;;;;;;4.78;2.67;;;;;;;15.23;65.14;98879.49;1714034;82;28046;-86
2021/06/14 07:05:51;;;;;;;7.05;3.08;;;;;;;15.15;64.95;98885.89;1709838;81;28106;-86
2021/06/14 07:08:17;;;;;;;8.13;2.85;;;;;;;15.09;64.82;98899.08;1712138;82;28077;-85
2021/06/14 07:10:44;;;;;;;4.58;2.52;;;;;;;14.98;64.61;98883.30;1711611;82;28156;-85
2021/06/14 07:13:12;;;;;;;6.75;2.90;;;;;;;14.96;64.48;98883.89;1709375;82;28113;-86
2021/06/14 07:15:38;;;;;;;7.37;2.87;;;;;;;15.00;64.41;98880.07;1704574;82;28168;-85
2021/06/14 07:18:05;;;;;;;6.03;3.15;;;;;;;15.15;64.43;98880.61;1707322;82;28017;-85
2021/06/14 07:20:31;;;;;;;7.25;3.20;;;;;;;15.30;64.43;98886.79;1707623;81;28062;-85
2021/06/14 07:22:58;;;;;;;8.43;3.30;;;;;;;15.40;64.40;98884.23;1709558;82;28147;-85
2021/06/14 07:25:24;;;;;;;8.95;3.25;;;;;;;15.56;64.41;98886.46;1707184;81;28020;-85
2021/06/14 07:27:56;;;;;;;8.35;3.20;;;;;;;15.69;64.37;98880.05;1708948;81;28226;-85
2021/06/14 07:30:26;;;;;;;5.08;2.80;;;;;;;15.94;64.39;98877.97;1710350;82;28093;-85
2021/06/14 07:32:52;;;;;;;7.10;3.22;;;;;;;16.21;64.47;98884.38;1710077;81;28069;-85
2021/06/14 07:35:20;;;;;;;8.10;3.30;;;;;;;16.40;64.45;98874.88;1711900;81;28108;-85
2021/06/14 07:37:48;;;;;;;7.12;2.60;;;;;;;16.57;64.48;98875.58;1715152;82;28159;-86
2021/06/14 07:40:15;;;;;;;6.45;3.02;;;;;;;16.60;64.30;98876.65;1711336;81;28093;-84
2021/06/14 07:42:42;;;;;;;6.83;3.10;;;;;;;16.62;64.08;98867.63;1706601;82;28061;-85
2021/06/14 07:45:12;;;;;;;6.80;3.50;;;;;;;16.67;63.90;98866.74;1710786;82;28175;-85
2021/06/14 07:47:38;;;;;;;6.03;3.22;;;;;;;16.86;63.79;98865.09;1711530;82;28076;-86
2021/06/14 07:50:11;;;;;;;8.28;3.20;;;;;;;17.06;63.78;98862.86;1713137;81;28077;-86
2021/06/14 07:52:37;;;;;;;8.63;2.87;;;;;;;17.22;63.68;98870.25;1710388;82;28132;-86
2021/06/14 07:55:04;;;;;;;6.10;3.02;;;;;;;17.31;63.57;98866.77;1709149;82;28074;-86
2021/06/14 07:57:31;;;;;;;10.88;3.37;;;;;;;17.35;63.44;98869.47;1710837;82;28181;-86
2021/06/14 07:59:58;;;;;;;7.95;3.00;;;;;;;17.32;63.20;98861.83;1711890;82;28134;-84
2021/06/14 08:02:24;;;;;;;6.35;3.02;;;;;;;17.34;63.08;98859.89;1713759;82;28010;-84
2021/06/14 08:04:50;;;;;;;5.22;2.92;;;;;;;17.38;62.94;98859.47;1710047;81;28049;-84
2021/06/14 08:07:17;;;;;;;9.68;3.20;;;;;;;17.43;62.79;98865.17;1707999;82;28073;-84
2021/06/14 08:09:45;;;;;;;5.60;2.95;;;;;;;17.51;62.63;98860.52;1711482;82;28072;-83
2021/06/14 08:12:11;;;;;;;10.58;4.03;;;;;;;17.71;62.53;98864.00;1715374;81;28085;-83
2021/06/14 08:14:38;;;;;;;8.38;3.08;;;;;;;17.90;62.42;98861.30;1707395;81;28050;-83
2021/06/14 08:17:04;;;;;;;5.30;2.77;;;;;;;17.87;62.20;98859.80;1713315;82;28116;-83
2021/06/14 08:19:44;;;;;;;4.47;2.90;;;;;;;17.88;62.02;98867.25;1709778;82;28107;-83
2021/06/14 08:27:21;;;;;;;6.70;2.90;;;;;;;17.57;61.17;98856.80;1711117;82;28094;-84
2021/06/14 08:29:47;;;;;;;5.28;3.33;;;;;;;17.74;61.01;98853.95;1716436;82;28029;-85
2021/06/14 08:32:13;;;;;;;6.50;3.15;;;;;;;17.95;60.92;98856.41;1714474;82;28041;-85
2021/06/14 08:34:39;;;;;;;7.47;3.08;;;;;;;18.24;60.93;98862.95;1722959;81;28088;-85
2021/06/14 08:37:06;;;;;;;4.92;2.77;;;;;;;18.43;60.90;98864.23;1714206;82;28103;-86
2021/06/14 08:39:32;;;;;;;9.23;3.08;;;;;;;18.47;60.69;98864.27;1714244;82;28120;-84
2021/06/14 08:42:00;;;;;;;7.55;3.33;;;;;;;18.51;60.48;98864.31;1714991;82;28132;-85
2021/06/14 08:44:32;;;;;;;10.28;3.55;;;;;;;18.49;60.26;98865.45;1707994;81;28116;-85
2021/06/14 08:46:58;;;;;;;4.08;2.77;;;;;;;18.44;60.07;98865.06;1699471;82;28149;-85
2021/06/14 08:49:27;;;;;;;7.55;3.33;;;;;;;18.50;59.98;98867.09;1711061;82;28117;-85
2021/06/14 08:51:54;;;;;;;6.80;2.72;;;;;;;18.64;59.89;98866.17;1711566;81;28056;-85
2021/06/14 08:54:42;;;;;;;9.43;3.80;;;;;;;18.75;59.77;98868.63;1711206;81;28119;-86
2021/06/14 08:57:13;;;;;;;6.95;3.37;;;;;;;18.86;59.58;98868.08;1723545;82;28174;-85
2021/06/14 08:59:45;;;;;;;6.15;3.02;;;;;;;18.96;59.41;98868.36;1707444;82;28120;-86
2021/06/14 09:02:11;;;;;;;6.00;2.80;;;;;;;18.93;59.09;98871.81;1707340;82;28111;-86
2021/06/14 09:04:38;;;;;;;8.05;3.17;;;;;;;18.83;58.76;98870.52;1713006;82;28075;-87
2021/06/14 09:07:07;;;;;;;7.58;2.92;;;;;;;18.79;58.53;98870.00;1718092;81;28124;-87
2021/06/14 09:09:34;;;;;;;7.00;3.08;;;;;;;18.61;58.25;98868.27;1708636;82;28094;-87
2021/06/14 09:12:06;;;;;;;6.28;3.20;;;;;;;18.56;58.10;98866.55;1716553;81;28206;-87
2021/06/14 09:14:32;;;;;;;6.40;2.20;;;;;;;18.54;57.89;98859.22;1710369;82;28194;-87
2021/06/14 09:17:14;;;;;;;5.33;2.20;;;;;;;18.53;57.64;98853.09;1703598;83;28638;-87
2021/06/14 09:19:44;;;;;;;6.37;2.45;;;;;;;18.58;57.37;98857.48;1705781;82;28160;-87
2021/06/14 09:22:22;;;;;;;4.00;2.55;;;;;;;18.70;57.13;98858.13;1705922;82;28135;-87
2021/06/14 09:25:07;;;;;;;5.62;2.80;;;;;;;18.83;56.90;98861.24;1705415;82;28145;-87
2021/06/14 09:27:39;;;;;;;4.92;3.00;;;;;;;18.97;56.67;98858.10;1704679;82;28069;-87
2021/06/14 09:30:15;;;;;;;6.72;3.20;;;;;;;19.06;56.36;98849.72;1701254;82;28146;-86
2021/06/14 09:33:00;;;;;;;3.92;2.35;;;;;;;19.29;56.28;98846.14;1702840;82;28069;-86
2021/06/14 09:35:32;;;;;;;5.67;2.90;;;;;;;19.44;56.15;98855.22;1700567;82;28144;-87
2021/06/14 09:38:02;;;;;;;5.42;2.98;;;;;;;19.43;55.98;98858.86;1683619;83;28132;-86
2021/06/14 09:40:31;;;;;;;4.97;2.47;;;;;;;19.35;55.77;98860.13;1703467;83;28112;-87
2021/06/14 09:42:58;;;;;;;5.22;3.08;;;;;;;19.32;55.64;98856.44;1705916;82;27997;-86
2021/06/14 09:45:25;;;;;;;5.60;2.92;;;;;;;19.32;55.50;98857.76;1705729;82;28081;-86
2021/06/14 09:47:54;;;;;;;7.05;3.50;;;;;;;19.29;55.32;98856.27;1706323;82;28092;-87
2021/06/14 09:50:31;;;;;;;7.50;2.83;;;;;;;19.34;55.19;98852.66;1705659;82;28148;-87
2021/06/14 09:53:07;;;;;;;5.45;2.45;;;;;;;19.50;55.19;98850.17;1705628;82;28171;-87
2021/06/14 09:55:34;;;;;;;6.55;2.50;;;;;;;19.60;55.08;98848.75;1703662;82;28127;-86
2021/06/14 09:58:21;;;;;;;5.05;2.70;;;;;;;19.59;54.81;98851.90;1704823;81;28124;-87
2021/06/14 10:00:50;;;;;;;5.45;2.85;;;;;;;19.67;54.68;98851.63;1702197;83;28127;-87
2021/06/14 10:03:16;;;;;;;6.15;2.75;;;;;;;19.59;54.45;98841.77;1705495;82;28613;-87
2021/06/14 10:05:45;;;;;;;5.85;3.05;;;;;;;19.47;54.25;98844.34;1703876;82;28111;-87
2021/06/14 10:08:30;;;;;;;5.72;3.20;;;;;;;19.37;54.06;98852.34;1709730;82;28080;-87
2021/06/14 10:11:11;;;;;;;7.92;3.12;;;;;;;19.18;53.78;98844.05;1696285;83;28072;-86
2021/06/14 10:13:41;;;;;;;6.20;2.27;;;;;;;19.18;53.66;98848.52;1709916;81;28085;-86
2021/06/14 10:16:13;;;;;;;7.20;2.90;;;;;;;19.26;53.51;98843.28;1721965;81;28102;-86
2021/06/14 10:18:43;;;;;;;;;;;;;;;19.37;53.47;98839.55;1722594;82;28104;-86
2021/06/14 10:21:31;;;;;;;8.95;2.95;;;;;;;19.61;53.48;98839.31;1713530;82;25966;-86
2021/06/14 10:24:01;;;;;;;9.33;2.67;;;;;;;19.76;53.40;98838.25;1704992;81;28089;-86
2021/06/14 10:26:29;;;;;;;6.15;3.00;;;;;;;19.84;53.29;98832.17;1709074;81;28205;-86
2021/06/14 10:28:57;;;;;;;6.25;3.05;;;;;;;19.79;53.04;98830.48;1712591;81;28181;-85
2021/06/14 10:31:24;;;;;;;7.62;2.92;;;;;;;19.87;52.91;98831.85;1712873;82;28089;-86
2021/06/14 10:33:55;;;;;;;5.53;3.10;;;;;;;19.76;52.58;98828.95;1696487;82;28146;-86
2021/06/14 10:36:24;;;;;;;5.55;3.00;;;;;;;19.73;52.37;98825.79;1714882;81;28121;-86
2021/06/14 10:38:51;;;;;;;5.62;2.70;;;;;;;19.88;52.29;98824.22;1706365;81;28120;-85
2021/06/14 10:41:23;;;;;;;5.45;2.37;;;;;;;20.06;52.17;98822.36;1708619;82;28195;-86
2021/06/14 10:43:51;;;;;;;4.35;2.30;;;;;;;20.17;51.95;98816.77;1713056;82;28112;-86
2021/06/14 10:46:21;;;;;;;5.95;3.08;;;;;;;20.26;51.71;98811.82;1714723;81;27995;-86
2021/06/14 10:48:49;;;;;;;6.28;2.90;;;;;;;20.19;51.28;98815.27;1714050;82;28073;-86
2021/06/14 10:51:20;;;;;;;6.85;2.67;;;;;;;20.11;51.00;98809.92;1712951;82;28080;-86
2021/06/14 10:53:51;;;;;;;4.87;2.42;;;;;;;20.13;50.91;98807.95;1717106;82;28081;-86
2021/06/14 10:56:16;;;;;;;4.85;3.02;;;;;;;20.26;50.95;98806.50;1711364;82;28078;-85
2021/06/14 10:58:46;;;;;;;3.83;2.60;;;;;;;20.35;50.90;98806.06;1711157;81;28135;-88
2021/06/14 11:01:15;;;;;;;6.70;2.58;;;;;;;20.42;50.74;98801.78;1669125;82;28085;-88
2021/06/14 11:03:48;;;;;;;4.12;2.17;;;;;;;20.47;50.60;98804.80;1711420;81;28178;-88
2021/06/14 11:06:24;;;;;;;7.37;2.75;;;;;;;20.47;50.28;98803.46;1718041;82;28203;-88
2021/06/14 11:09:01;;;;;;;4.28;2.30;;;;;;;20.43;49.95;98797.64;1707928;82;28093;-88
2021/06/14 11:11:28;;;;;;;3.72;2.40;;;;;;;20.67;49.96;98794.73;1672861;82;28198;-87
2021/06/14 11:13:55;;;;;;;5.78;3.40;;;;;;;20.76;49.76;98794.59;1716002;81;28129;-88
2021/06/14 11:16:22;;;;;;;7.08;3.30;;;;;;;20.96;49.77;98792.45;1714116;82;28164;-89
2021/06/14 11:18:53;;;;;;;5.12;2.95;;;;;;;21.06;49.74;98790.96;1722035;81;28105;-88
2021/06/14 11:21:22;;;;;;;6.78;2.95;;;;;;;21.06;49.67;98783.81;1718561;81;28112;-88
2021/06/14 11:23:49;;;;;;;6.03;2.75;;;;;;;21.04;49.59;98785.83;1711395;82;27990;-88
2021/06/14 11:26:30;;;;;;;4.67;2.35;;;;;;;21.05;49.46;98780.84;1716415;82;28091;-88
2021/06/14 11:28:59;;;;;;;5.33;2.72;;;;;;;21.20;49.39;98774.39;1708512;82;28164;-88
2021/06/14 11:31:28;;;;;;;10.43;3.30;;;;;;;21.35;49.29;98768.72;1713988;81;28084;-89
2021/06/14 11:34:02;;;;;;;6.12;2.77;;;;;;;21.50;49.22;98775.03;1721396;81;28115;-88
2021/06/14 11:36:31;;;;;;;4.80;2.70;;;;;;;21.50;48.94;98770.20;1720990;80;28098;-89
2021/06/14 11:38:59;;;;;;;7.28;2.98;;;;;;;21.36;48.70;98775.72;1716410;82;28154;-89
2021/06/14 11:41:31;;;;;;;4.72;2.90;;;;;;;21.16;48.52;98773.91;1723505;82;28080;-89
2021/06/14 11:44:24;;;;;;;5.95;3.10;;;;;;;21.13;48.50;98776.84;1726379;81;28078;-89
2021/06/14 11:46:54;;;;;;;9.58;3.25;;;;;;;21.12;48.47;98778.33;1683344;81;28158;-89
2021/06/14 11:49:30;;;;;;;7.60;2.90;;;;;;;21.02;48.32;98777.16;1712977;82;28103;-88
2021/06/14 11:51:56;;;;;;;6.15;2.65;;;;;;;21.04;48.29;98771.69;1720159;82;28099;-89
2021/06/14 11:54:24;;;;;;;5.28;2.95;;;;;;;21.07;48.18;98768.19;1722967;82;28144;-89
2021/06/14 11:57:01;;;;;;;6.42;2.90;;;;;;;21.04;48.02;98769.86;1717171;82;28105;-89
2021/06/14 11:59:33;;;;;;;6.05;2.77;;;;;;;21.24;48.00;98767.23;1719489;82;28104;-89